createdAt,value
2022-10-13T00:00:17.721Z,76.46
2022-10-13T00:02:44.067Z,76.36
2022-10-13T00:05:10.382Z,76.54
2022-10-13T00:07:36.773Z,76.24
2022-10-13T00:10:03.111Z,76.42
2022-10-13T00:12:29.449Z,76.67
2022-10-13T00:14:55.782Z,76.53
2022-10-13T00:17:22.138Z,76.28
2022-10-13T00:19:48.471Z,76.14
2022-10-13T00:22:14.815Z,76.34
2022-10-13T00:24:41.130Z,76.49
2022-10-13T00:27:07.500Z,76.58
2022-10-13T00:29:33.836Z,76.43
2022-10-13T00:32:00.178Z,76.58
2022-10-13T00:34:26.531Z,76.67
2022-10-13T00:36:52.861Z,76.67
2022-10-13T00:39:19.189Z,76.68
2022-10-13T00:41:45.512Z,76.96
2022-10-13T00:44:11.905Z,77.12
2022-10-13T00:46:38.223Z,77.43
2022-10-13T00:49:04.542Z,77.54
2022-10-13T00:51:30.918Z,77.77
2022-10-13T00:53:57.237Z,77.74
2022-10-13T00:56:23.580Z,77.35
2022-10-13T00:58:50.032Z,77.18
2022-10-13T01:01:16.421Z,77.13
2022-10-13T01:03:42.712Z,77.76
2022-10-13T01:06:09.098Z,77.62
2022-10-13T01:08:35.419Z,77.61
2022-10-13T01:11:01.772Z,77.63
2022-10-13T01:13:28.087Z,77.43
2022-10-13T01:15:54.436Z,77.23
2022-10-13T01:18:20.750Z,77.30
2022-10-13T01:20:47.075Z,77.35
2022-10-13T01:23:13.400Z,77.77
2022-10-13T01:25:39.764Z,78.18
2022-10-13T01:28:06.087Z,78.57
2022-10-13T01:30:32.420Z,78.45
2022-10-13T01:32:58.743Z,78.12
2022-10-13T01:35:25.068Z,78.28
2022-10-13T01:37:51.427Z,78.15
2022-10-13T01:40:17.772Z,77.72
2022-10-13T01:42:44.087Z,77.95
2022-10-13T01:45:10.425Z,78.33
2022-10-13T01:47:36.771Z,78.78
2022-10-13T01:50:03.112Z,78.76
2022-10-13T01:52:29.478Z,78.98
2022-10-13T01:54:55.821Z,79.21
2022-10-13T01:57:22.149Z,79.21
2022-10-13T01:59:48.502Z,79.31
2022-10-13T02:02:14.823Z,79.33
2022-10-13T02:04:41.166Z,79.31
2022-10-13T02:07:07.518Z,79.49
2022-10-13T02:09:33.863Z,79.50
2022-10-13T02:12:00.176Z,79.45
2022-10-13T02:14:26.530Z,79.21
2022-10-13T02:16:52.884Z,79.23
2022-10-13T02:19:19.230Z,79.38
2022-10-13T02:21:45.547Z,79.27
2022-10-13T02:24:11.936Z,79.62
2022-10-13T02:26:38.277Z,79.69
2022-10-13T02:29:04.595Z,79.97
2022-10-13T02:31:30.944Z,80.12
2022-10-13T02:33:57.281Z,80.25
2022-10-13T02:36:23.664Z,80.16
2022-10-13T02:38:49.994Z,80.10
2022-10-13T02:41:16.327Z,79.82
2022-10-13T02:43:42.657Z,79.98
2022-10-13T02:46:08.996Z,79.63
2022-10-13T02:48:35.488Z,79.39
2022-10-13T02:51:01.768Z,79.51
2022-10-13T02:53:28.090Z,79.58
2022-10-13T02:55:54.437Z,79.23
2022-10-13T02:58:20.760Z,79.09
2022-10-13T03:00:47.176Z,79.08
2022-10-13T03:03:13.439Z,79.37
2022-10-13T03:05:39.763Z,79.51
2022-10-13T03:08:06.124Z,79.92
2022-10-13T03:10:32.438Z,80.23
2022-10-13T03:12:58.794Z,80.56
2022-10-13T03:15:25.185Z,80.69
2022-10-13T03:17:51.525Z,80.71
2022-10-13T03:20:17.862Z,80.68
2022-10-13T03:22:48.806Z,80.64
2022-10-13T03:25:10.537Z,80.87
2022-10-13T03:27:36.895Z,81.11
2022-10-13T03:30:03.218Z,81.23
2022-10-13T03:32:29.544Z,81.12
2022-10-13T03:34:55.891Z,81.04
2022-10-13T03:37:22.232Z,80.95
2022-10-13T03:39:48.608Z,81.28
2022-10-13T03:42:14.947Z,81.24
2022-10-13T03:44:41.280Z,81.51
2022-10-13T03:47:07.624Z,81.51
2022-10-13T03:49:33.951Z,81.25
2022-10-13T03:52:00.294Z,81.34
2022-10-13T03:54:26.658Z,81.24
2022-10-13T03:56:52.970Z,81.03
2022-10-13T03:59:19.292Z,80.81
2022-10-13T04:01:45.667Z,80.78
2022-10-13T04:04:11.960Z,80.57
2022-10-13T04:06:38.283Z,80.24
2022-10-13T04:09:04.612Z,80.21
2022-10-13T04:11:30.959Z,80.30
2022-10-13T04:13:57.303Z,80.27
2022-10-13T04:16:23.635Z,80.37
2022-10-13T04:18:49.969Z,80.43
2022-10-13T04:21:16.306Z,80.55
2022-10-13T04:23:42.648Z,80.50
2022-10-13T04:26:08.983Z,80.24
2022-10-13T04:28:35.375Z,80.03
2022-10-13T04:31:01.666Z,79.79
2022-10-13T04:33:28.021Z,79.82
2022-10-13T04:35:54.382Z,79.92
2022-10-13T04:38:20.728Z,79.78
2022-10-13T04:40:47.068Z,79.61
2022-10-13T04:43:13.407Z,79.80
2022-10-13T04:45:39.720Z,80.44
2022-10-13T04:48:06.047Z,80.68
2022-10-13T04:50:32.441Z,80.37
2022-10-13T04:52:58.785Z,80.59
2022-10-13T04:55:25.104Z,80.40
2022-10-13T04:57:51.447Z,79.95
2022-10-13T05:00:17.788Z,80.14
2022-10-13T05:02:44.129Z,80.07
2022-10-13T05:05:10.450Z,79.76
2022-10-13T05:07:36.785Z,79.77
2022-10-13T05:10:03.124Z,79.70
2022-10-13T05:12:29.472Z,79.90
2022-10-13T05:14:55.805Z,80.06
2022-10-13T05:17:22.127Z,80.37
2022-10-13T05:19:48.514Z,80.34
2022-10-13T05:22:14.807Z,80.20
2022-10-13T05:24:41.129Z,80.02
2022-10-13T05:27:07.472Z,80.00
2022-10-13T05:29:33.793Z,79.84
2022-10-13T05:32:00.153Z,80.08
2022-10-13T05:34:26.526Z,80.20
2022-10-13T05:36:52.919Z,79.95
2022-10-13T05:39:19.258Z,79.80
2022-10-13T05:41:45.592Z,79.95
2022-10-13T05:44:11.920Z,80.46
2022-10-13T05:46:38.310Z,80.49
2022-10-13T05:49:04.648Z,80.79
2022-10-13T05:51:30.968Z,81.43
2022-10-13T05:53:57.951Z,81.70
2022-10-13T05:56:23.633Z,81.70
2022-10-13T05:58:49.971Z,81.69
2022-10-13T06:01:16.335Z,81.36
2022-10-13T06:03:42.676Z,80.79
2022-10-13T06:06:09.004Z,80.72
2022-10-13T06:08:35.404Z,80.36
2022-10-13T06:11:01.756Z,80.29
2022-10-13T06:13:28.099Z,80.18
2022-10-13T06:15:54.465Z,79.96
2022-10-13T06:18:20.798Z,79.40
2022-10-13T06:20:47.126Z,78.91
2022-10-13T06:23:13.515Z,78.37
2022-10-13T06:25:39.837Z,78.25
2022-10-13T06:28:06.159Z,77.96
2022-10-13T06:30:32.527Z,77.89
2022-10-13T06:32:58.867Z,77.09
2022-10-13T06:35:25.207Z,76.60
2022-10-13T06:37:51.550Z,74.99
2022-10-13T06:40:17.888Z,73.30
2022-10-13T06:42:44.234Z,71.84
2022-10-13T06:45:10.622Z,71.21
2022-10-13T06:47:36.936Z,71.00
2022-10-13T06:50:03.265Z,70.93
2022-10-13T06:52:29.590Z,70.86
2022-10-13T06:54:55.914Z,70.95
2022-10-13T06:57:22.253Z,69.69
2022-10-13T06:59:48.583Z,68.68
2022-10-13T07:02:14.902Z,68.11
2022-10-13T07:04:41.297Z,67.38
2022-10-13T07:07:07.616Z,65.93
2022-10-13T07:09:33.969Z,65.76
2022-10-13T07:12:00.372Z,66.34
2022-10-13T07:14:26.699Z,65.14
2022-10-13T07:16:53.019Z,64.40
2022-10-13T07:19:19.371Z,63.58
2022-10-13T07:21:45.704Z,62.95
2022-10-13T07:24:12.055Z,62.42
2022-10-13T07:26:38.394Z,61.71
2022-10-13T07:29:04.719Z,61.92
2022-10-13T07:31:31.055Z,61.31
2022-10-13T07:33:57.447Z,61.54
2022-10-13T07:36:23.783Z,60.90
2022-10-13T07:38:50.103Z,60.60
2022-10-13T07:41:16.465Z,59.33
2022-10-13T07:43:42.789Z,59.57
2022-10-13T07:46:09.115Z,58.38
2022-10-13T07:48:35.481Z,57.58
2022-10-13T07:51:01.819Z,59.17
2022-10-13T07:53:28.162Z,57.94
2022-10-13T07:55:54.503Z,57.04
2022-10-13T07:58:20.849Z,57.66
2022-10-13T08:00:47.195Z,56.55
2022-10-13T08:03:13.539Z,56.06
2022-10-13T08:05:39.905Z,55.87
2022-10-13T08:08:06.232Z,54.99
2022-10-13T08:10:32.556Z,55.29
2022-10-13T08:12:58.909Z,56.58
2022-10-13T08:15:25.251Z,56.95
2022-10-13T08:17:51.594Z,56.14
2022-10-13T08:20:17.988Z,55.70
2022-10-13T08:22:44.313Z,53.73
2022-10-13T08:25:10.639Z,55.50
2022-10-13T08:27:50.177Z,55.15
2022-10-13T08:30:03.349Z,53.98
2022-10-13T08:32:29.713Z,53.46
2022-10-13T08:34:56.151Z,52.60
2022-10-13T08:37:22.372Z,52.25
2022-10-13T08:39:48.735Z,52.67
2022-10-13T08:42:15.080Z,51.65
2022-10-13T08:45:15.703Z,50.39
2022-10-13T08:47:07.761Z,49.46
2022-10-13T08:49:34.085Z,49.42
2022-10-13T08:52:00.414Z,49.43
2022-10-13T08:54:26.759Z,47.65
2022-10-13T08:56:53.132Z,48.19
2022-10-13T08:59:19.417Z,47.05
2022-10-13T09:01:45.838Z,47.10
2022-10-13T09:04:12.130Z,47.41
2022-10-13T09:06:38.471Z,47.15
2022-10-13T09:09:04.827Z,48.03
2022-10-13T09:11:31.171Z,47.92
2022-10-13T09:13:57.507Z,48.34
2022-10-13T09:16:23.843Z,46.33
2022-10-13T09:18:50.173Z,44.54
2022-10-13T09:21:16.610Z,44.31
2022-10-13T09:23:42.952Z,44.36
2022-10-13T09:26:09.288Z,44.57
2022-10-13T09:28:35.698Z,44.28
2022-10-13T09:31:01.994Z,43.99
2022-10-13T09:33:28.335Z,44.27
2022-10-13T09:35:54.664Z,43.29
2022-10-13T09:38:21.004Z,43.09
2022-10-13T09:40:47.326Z,43.79
2022-10-13T09:43:13.694Z,42.91
2022-10-13T09:45:40.042Z,42.32
2022-10-13T09:48:06.359Z,42.33
2022-10-13T09:50:32.688Z,40.42
2022-10-13T09:52:59.008Z,41.60
2022-10-13T09:55:28.696Z,41.62
2022-10-13T09:57:51.704Z,40.51
2022-10-13T10:00:18.049Z,39.27
2022-10-13T10:02:44.411Z,40.01
2022-10-13T10:05:10.755Z,40.18
2022-10-13T10:07:37.099Z,39.74
2022-10-13T10:10:03.461Z,39.61
2022-10-13T10:12:29.801Z,39.53
2022-10-13T10:14:56.146Z,39.05
2022-10-13T10:17:22.799Z,38.81
2022-10-13T10:19:48.825Z,38.98
2022-10-13T10:22:15.170Z,39.31
2022-10-13T10:24:41.506Z,39.66
2022-10-13T10:27:07.935Z,40.00
2022-10-13T10:29:34.204Z,40.05
2022-10-13T10:32:00.546Z,40.11
2022-10-13T10:34:26.901Z,39.34
2022-10-13T10:36:53.228Z,39.19
2022-10-13T10:39:19.555Z,38.62
2022-10-13T10:41:45.903Z,38.51
2022-10-13T10:44:12.222Z,40.29
2022-10-13T10:46:38.582Z,41.09
2022-10-13T10:49:04.951Z,40.75
2022-10-13T10:51:31.300Z,41.82
2022-10-13T10:53:57.624Z,40.84
2022-10-13T10:56:23.982Z,40.10
2022-10-13T10:58:50.303Z,40.70
2022-10-13T11:01:16.689Z,40.33
2022-10-13T11:03:43.011Z,40.47
2022-10-13T11:06:09.329Z,39.93
2022-10-13T11:08:35.680Z,39.51
2022-10-13T11:11:02.042Z,38.88
2022-10-13T11:13:28.367Z,38.19
2022-10-13T11:15:54.720Z,38.90
2022-10-13T11:18:22.010Z,38.90
2022-10-13T11:20:47.390Z,39.12
2022-10-13T11:23:13.739Z,39.75
2022-10-13T11:25:40.077Z,39.69
2022-10-13T11:28:06.442Z,39.86
2022-10-13T11:30:32.786Z,39.46
2022-10-13T11:32:59.105Z,39.92
2022-10-13T11:35:25.435Z,40.13
2022-10-13T11:38:05.872Z,39.89
2022-10-13T11:40:18.216Z,39.36
2022-10-13T11:42:44.546Z,38.77
2022-10-13T11:45:10.896Z,38.09
2022-10-13T11:47:37.240Z,38.05
2022-10-13T11:50:03.569Z,37.54
2022-10-13T11:52:29.889Z,37.84
2022-10-13T11:54:56.240Z,39.11
2022-10-13T11:57:22.566Z,38.38
2022-10-13T11:59:48.937Z,38.16
2022-10-13T12:02:18.213Z,38.42
2022-10-13T12:04:46.366Z,38.46
2022-10-13T12:07:07.915Z,38.09
2022-10-13T12:09:34.238Z,37.67
2022-10-13T12:12:00.599Z,37.07
2022-10-13T12:14:26.945Z,36.04
2022-10-13T12:16:53.341Z,36.38
2022-10-13T12:19:19.603Z,37.26
2022-10-13T12:21:45.932Z,37.91
2022-10-13T12:24:12.269Z,38.53
2022-10-13T12:26:38.624Z,38.96
2022-10-13T12:29:04.960Z,39.09
2022-10-13T12:31:31.307Z,39.71
2022-10-13T12:33:57.651Z,40.12
2022-10-13T12:36:23.975Z,40.36
2022-10-13T12:38:50.318Z,40.35
2022-10-13T12:41:16.645Z,40.24
2022-10-13T12:43:42.987Z,39.73
2022-10-13T12:46:09.365Z,39.55
2022-10-13T12:48:35.697Z,39.86
2022-10-13T12:51:02.041Z,39.04
2022-10-13T12:53:28.444Z,39.49
2022-10-13T12:55:54.794Z,39.68
2022-10-13T12:58:21.137Z,39.47
2022-10-13T13:00:47.510Z,40.11
2022-10-13T13:03:13.837Z,39.59
2022-10-13T13:05:40.159Z,39.64
2022-10-13T13:08:06.491Z,39.16
2022-10-13T13:10:32.813Z,39.02
2022-10-13T13:12:59.174Z,39.33
2022-10-13T13:15:25.517Z,39.34
2022-10-13T13:17:59.433Z,39.31
2022-10-13T13:20:18.202Z,39.32
2022-10-13T13:22:44.547Z,39.38
2022-10-13T13:25:10.895Z,38.77
2022-10-13T13:27:37.265Z,38.92
2022-10-13T13:30:03.621Z,39.19
2022-10-13T13:32:29.937Z,39.37
2022-10-13T13:34:56.297Z,39.31
2022-10-13T13:37:22.766Z,39.34
2022-10-13T13:39:48.995Z,39.30
2022-10-13T13:42:15.368Z,38.75
2022-10-13T13:44:41.692Z,38.94
2022-10-13T13:47:08.042Z,39.12
2022-10-13T13:49:34.363Z,39.40
2022-10-13T13:52:00.689Z,39.65
2022-10-13T13:54:27.011Z,39.83
2022-10-13T13:56:56.580Z,39.84
2022-10-13T13:59:19.687Z,39.70
2022-10-13T14:01:46.105Z,39.98
2022-10-13T14:04:12.393Z,39.34
2022-10-13T14:06:38.769Z,39.54
2022-10-13T14:09:05.108Z,39.60
2022-10-13T14:11:31.452Z,39.82
2022-10-13T14:13:57.824Z,40.21
2022-10-13T14:16:24.168Z,40.01
2022-10-13T14:18:50.504Z,40.30
2022-10-13T14:21:16.857Z,40.56
2022-10-13T14:23:43.197Z,40.87
2022-10-13T14:26:09.534Z,41.15
2022-10-13T14:28:35.956Z,41.23
2022-10-13T14:31:02.257Z,42.09
2022-10-13T14:33:28.601Z,42.14
2022-10-13T14:35:54.940Z,42.12
2022-10-13T14:38:21.281Z,42.80
2022-10-13T14:40:47.625Z,43.33
2022-10-13T14:43:13.994Z,43.96
2022-10-13T14:45:40.333Z,44.21
2022-10-13T14:48:06.672Z,45.21
2022-10-13T14:50:33.006Z,45.74
2022-10-13T14:52:59.344Z,46.08
2022-10-13T14:55:25.692Z,46.64
2022-10-13T14:57:52.035Z,46.92
2022-10-13T15:00:18.383Z,47.32
2022-10-13T15:02:44.704Z,47.43
2022-10-13T15:05:11.051Z,48.00
2022-10-13T15:07:40.979Z,48.40
2022-10-13T15:10:06.226Z,48.56
2022-10-13T15:12:30.079Z,48.82
2022-10-13T15:14:56.406Z,49.24
2022-10-13T15:17:22.731Z,49.69
2022-10-13T15:19:49.073Z,49.92
2022-10-13T15:22:15.396Z,50.11
2022-10-13T15:24:41.723Z,49.83
2022-10-13T15:27:08.073Z,50.12
2022-10-13T15:29:34.410Z,50.04
2022-10-13T15:32:00.737Z,50.45
2022-10-13T15:34:27.114Z,50.75
2022-10-13T15:36:53.432Z,51.01
2022-10-13T15:39:19.761Z,51.41
2022-10-13T15:41:46.082Z,51.11
2022-10-13T15:44:12.412Z,51.57
2022-10-13T15:46:49.164Z,51.87
2022-10-13T15:49:05.077Z,52.15
2022-10-13T15:51:31.420Z,51.90
2022-10-13T15:53:57.767Z,51.51
2022-10-13T15:56:24.085Z,51.76
2022-10-13T15:58:50.433Z,51.75
2022-10-13T16:01:16.880Z,51.79
2022-10-13T16:03:43.119Z,51.68
2022-10-13T16:06:09.445Z,51.71
2022-10-13T16:08:35.790Z,51.95
2022-10-13T16:11:02.111Z,51.92
2022-10-13T16:13:28.456Z,51.96
2022-10-13T16:15:54.775Z,52.20
2022-10-13T16:18:21.102Z,52.00
2022-10-13T16:20:47.420Z,52.08
2022-10-13T16:23:13.741Z,52.35
2022-10-13T16:25:40.102Z,52.29
2022-10-13T16:28:06.450Z,52.35
2022-10-13T16:30:32.770Z,52.39
2022-10-13T16:32:59.127Z,52.48
2022-10-13T16:35:25.467Z,52.71
2022-10-13T16:37:51.795Z,52.59
2022-10-13T16:40:18.617Z,52.63
2022-10-13T16:42:44.967Z,52.86
2022-10-13T16:45:11.297Z,52.92
2022-10-13T16:47:37.644Z,52.94
2022-10-13T16:50:03.960Z,53.13
2022-10-13T16:52:30.308Z,53.65
2022-10-13T16:54:56.660Z,53.87
2022-10-13T16:57:23.254Z,54.14
2022-10-13T16:59:49.304Z,54.64
2022-10-13T17:02:15.703Z,54.55
2022-10-13T17:04:42.022Z,54.97
2022-10-13T17:07:08.374Z,55.18
2022-10-13T17:09:34.731Z,55.35
2022-10-13T17:12:01.049Z,55.67
2022-10-13T17:14:27.390Z,56.11
2022-10-13T17:16:57.593Z,56.27
2022-10-13T17:19:20.050Z,56.25
2022-10-13T17:21:46.375Z,56.48
2022-10-13T17:24:12.725Z,56.89
2022-10-13T17:26:39.050Z,57.39
2022-10-13T17:29:05.398Z,57.47
2022-10-13T17:31:31.758Z,57.56
2022-10-13T17:33:58.075Z,57.38
2022-10-13T17:36:24.419Z,57.58
2022-10-13T17:38:50.735Z,57.43
2022-10-13T17:41:17.061Z,57.27
2022-10-13T17:43:43.401Z,57.30
2022-10-13T17:46:34.595Z,57.30
2022-10-13T17:48:36.098Z,57.27
2022-10-13T17:51:02.442Z,57.49
2022-10-13T17:53:28.820Z,57.35
2022-10-13T17:55:55.142Z,57.52
2022-10-13T17:58:21.483Z,57.61
2022-10-13T18:01:11.955Z,57.95
2022-10-13T18:03:14.207Z,57.86
2022-10-13T18:05:40.536Z,58.11
2022-10-13T18:08:06.882Z,58.06
2022-10-13T18:10:50.890Z,58.32
2022-10-13T18:12:59.597Z,58.40
2022-10-13T18:15:25.940Z,58.34
2022-10-13T18:17:52.275Z,58.46
2022-10-13T18:20:18.650Z,58.51
2022-10-13T18:22:44.983Z,58.65
2022-10-13T18:25:11.325Z,59.18
2022-10-13T18:27:37.678Z,59.06
2022-10-13T18:30:04.020Z,58.89
2022-10-13T18:32:30.333Z,59.06
2022-10-13T18:34:56.657Z,59.08
2022-10-13T18:37:23.213Z,59.30
2022-10-13T18:39:49.343Z,59.25
2022-10-13T18:42:15.691Z,59.56
2022-10-13T18:44:42.038Z,59.25
2022-10-13T18:47:08.409Z,59.33
2022-10-13T18:49:34.753Z,59.60
2022-10-13T18:52:01.090Z,59.64
2022-10-13T18:54:27.433Z,59.51
2022-10-13T18:56:53.790Z,59.63
2022-10-13T18:59:20.131Z,59.71
2022-10-13T19:01:46.757Z,59.87
2022-10-13T19:04:13.093Z,59.93
2022-10-13T19:06:39.414Z,60.24
2022-10-13T19:09:05.785Z,60.31
2022-10-13T19:11:32.167Z,60.49
2022-10-13T19:13:58.504Z,60.16
2022-10-13T19:16:24.849Z,60.28
2022-10-13T19:18:51.174Z,60.21
2022-10-13T19:21:17.518Z,60.63
2022-10-13T19:23:43.850Z,60.63
2022-10-13T19:26:14.847Z,60.76
2022-10-13T19:28:36.606Z,61.06
2022-10-13T19:31:02.867Z,60.82
2022-10-13T19:33:29.215Z,60.97
2022-10-13T19:35:55.559Z,61.11
2022-10-13T19:38:21.935Z,61.42
2022-10-13T19:40:48.277Z,61.94
2022-10-13T19:43:14.597Z,62.64
2022-10-13T19:45:40.972Z,63.00
2022-10-13T19:48:07.300Z,62.75
2022-10-13T19:50:33.647Z,63.30
2022-10-13T19:52:59.969Z,63.56
2022-10-13T19:55:26.285Z,63.66
2022-10-13T19:57:52.633Z,63.65
2022-10-13T20:00:19.102Z,63.70
2022-10-13T20:02:45.431Z,63.93
2022-10-13T20:05:11.762Z,64.46
2022-10-13T20:07:38.132Z,64.72
2022-10-13T20:10:04.514Z,64.72
2022-10-13T20:12:30.848Z,64.74
2022-10-13T20:14:57.188Z,64.86
2022-10-13T20:17:23.859Z,64.51
2022-10-13T20:19:49.898Z,64.70
2022-10-13T20:22:16.236Z,64.73
2022-10-13T20:24:42.550Z,64.80
2022-10-13T20:27:08.900Z,64.53
2022-10-13T20:29:35.242Z,64.60
2022-10-13T20:32:01.580Z,64.42
2022-10-13T20:34:27.922Z,64.65
2022-10-13T20:36:54.264Z,64.43
2022-10-13T20:39:20.623Z,64.25
2022-10-13T20:41:46.963Z,63.93
2022-10-13T20:44:13.297Z,63.87
2022-10-13T20:46:39.642Z,63.78
2022-10-13T20:49:10.861Z,63.55
2022-10-13T20:51:32.328Z,63.60
2022-10-13T20:53:58.677Z,63.51
2022-10-13T20:56:25.012Z,63.70
2022-10-13T20:58:51.376Z,63.60
2022-10-13T21:01:17.785Z,63.56
2022-10-13T21:03:44.056Z,63.16
2022-10-13T21:06:10.450Z,62.88
2022-10-13T21:08:36.787Z,62.32
2022-10-13T21:11:03.103Z,62.05
2022-10-13T21:13:29.457Z,61.63
2022-10-13T21:15:55.775Z,61.30
2022-10-13T21:18:22.110Z,60.79
2022-10-13T21:20:48.488Z,61.04
2022-10-13T21:23:14.821Z,61.37
2022-10-13T21:25:41.140Z,61.60
2022-10-13T21:28:07.511Z,61.68
2022-10-13T21:30:33.847Z,61.76
2022-10-13T21:33:00.178Z,61.71
2022-10-13T21:35:26.518Z,61.68
2022-10-13T21:37:52.837Z,61.96
2022-10-13T21:40:19.185Z,62.03
2022-10-13T21:42:45.522Z,62.05
2022-10-13T21:45:11.844Z,62.03
2022-10-13T21:47:38.158Z,61.81
2022-10-13T21:50:04.526Z,61.73
2022-10-13T21:52:30.820Z,62.00
2022-10-13T21:54:57.145Z,62.20
2022-10-13T21:57:23.749Z,62.34
2022-10-13T21:59:49.806Z,62.51
2022-10-13T22:02:16.124Z,62.26
2022-10-13T22:04:42.449Z,62.31
2022-10-13T22:07:08.774Z,62.07
2022-10-13T22:09:35.119Z,62.01
2022-10-13T22:12:01.437Z,61.75
2022-10-13T22:14:27.779Z,61.86
2022-10-13T22:16:54.095Z,61.36
2022-10-13T22:19:20.456Z,61.37
2022-10-13T22:21:46.800Z,61.41
2022-10-13T22:24:13.119Z,61.27
2022-10-13T22:26:39.444Z,61.03
2022-10-13T22:29:05.878Z,60.77
2022-10-13T22:31:32.105Z,60.96
2022-10-13T22:33:58.453Z,60.98
2022-10-13T22:36:24.793Z,61.16
2022-10-13T22:38:51.112Z,61.29
2022-10-13T22:41:17.448Z,61.24
2022-10-13T22:43:43.790Z,61.31
2022-10-13T22:46:10.126Z,61.32
2022-10-13T22:48:40.546Z,61.19
2022-10-13T22:51:02.830Z,61.06
2022-10-13T22:53:29.153Z,60.74
2022-10-13T22:55:55.501Z,60.77
2022-10-13T22:58:21.845Z,60.25
2022-10-13T23:00:48.171Z,60.40
2022-10-13T23:03:14.552Z,59.59
2022-10-13T23:05:40.854Z,59.61
2022-10-13T23:08:07.195Z,60.50
2022-10-13T23:10:33.511Z,59.13
2022-10-13T23:12:59.832Z,58.26
2022-10-13T23:15:26.170Z,57.82
2022-10-13T23:17:52.492Z,57.32
2022-10-13T23:20:18.830Z,56.34
2022-10-13T23:22:45.178Z,55.62
2022-10-13T23:25:11.499Z,55.16
2022-10-13T23:27:37.844Z,54.78
2022-10-13T23:30:04.158Z,54.86
2022-10-13T23:32:30.482Z,54.93
2022-10-13T23:34:56.839Z,55.16
2022-10-13T23:37:23.570Z,55.04
2022-10-13T23:39:49.517Z,55.17
2022-10-13T23:42:15.844Z,55.18
2022-10-13T23:44:42.180Z,55.26
2022-10-13T23:47:08.504Z,55.00
2022-10-13T23:49:34.845Z,54.55
2022-10-13T23:52:01.185Z,54.16
2022-10-13T23:54:27.525Z,54.45
2022-10-13T23:56:53.849Z,54.48
2022-10-13T23:59:20.193Z,54.93
